createdAt,value
2022-10-17T00:01:59.660Z,92639.81
2022-10-17T00:04:45.437Z,92650.06
2022-10-17T00:07:31.464Z,92651.53
2022-10-17T00:10:17.704Z,92649.19
2022-10-17T00:13:03.512Z,92656.22
2022-10-17T00:15:49.329Z,92654.97
2022-10-17T00:18:35.117Z,92653.53
2022-10-17T00:21:20.888Z,92659.09
2022-10-17T00:24:06.973Z,92657.31
2022-10-17T00:26:54.662Z,92663.03
2022-10-17T00:29:40.630Z,92656.56
2022-10-17T00:32:28.721Z,92651.84
2022-10-17T00:35:14.969Z,92649.78
2022-10-17T00:38:00.785Z,92652.78
2022-10-17T00:40:46.693Z,92658.16
2022-10-17T00:43:32.457Z,92655.91
2022-10-17T00:46:18.371Z,92650.31
2022-10-17T00:49:04.191Z,92660.09
2022-10-17T00:51:50.027Z,92666.16
2022-10-17T00:54:35.933Z,92658.66
2022-10-17T00:57:21.711Z,92660.19
2022-10-17T01:00:07.677Z,92654.75
2022-10-17T01:02:53.671Z,92657.41
2022-10-17T01:05:39.537Z,92657.59
2022-10-17T01:08:25.306Z,92651.19
2022-10-17T01:11:11.346Z,92655.31
2022-10-17T01:13:57.265Z,92652.94
2022-10-17T01:16:43.200Z,92654.97
2022-10-17T01:19:29.149Z,92667.38
2022-10-17T01:22:14.855Z,92664.16
2022-10-17T01:25:00.877Z,92668.53
2022-10-17T01:27:46.626Z,92671.72
2022-10-17T01:30:32.529Z,92670.91
2022-10-17T01:33:18.339Z,92668.88
2022-10-17T01:36:05.811Z,92667.31
2022-10-17T01:38:52.401Z,92667.72
2022-10-17T01:41:38.278Z,92679.13
2022-10-17T01:44:24.249Z,92683.94
2022-10-17T01:47:10.192Z,92691.00
2022-10-17T01:49:55.929Z,92683.69
2022-10-17T01:52:41.861Z,92677.97
2022-10-17T01:55:27.635Z,92676.88
2022-10-17T01:58:13.496Z,92677.72
2022-10-17T02:00:59.559Z,92669.44
2022-10-17T02:03:45.343Z,92675.91
2022-10-17T02:06:31.056Z,92671.22
2022-10-17T02:09:16.911Z,92671.03
2022-10-17T02:12:02.679Z,92664.00
2022-10-17T02:14:48.480Z,92664.19
2022-10-17T02:17:34.308Z,92664.34
2022-10-17T02:20:20.329Z,92660.59
2022-10-17T02:23:08.224Z,92669.56
2022-10-17T02:25:54.043Z,92682.00
2022-10-17T02:28:39.977Z,92676.81
2022-10-17T02:31:25.879Z,92680.03
2022-10-17T02:34:11.707Z,92671.13
2022-10-17T02:36:57.511Z,92674.78
2022-10-17T02:39:43.309Z,92671.09
2022-10-17T02:42:29.542Z,92676.59
2022-10-17T02:45:15.797Z,92670.31
2022-10-17T02:48:01.567Z,92680.44
2022-10-17T02:50:47.426Z,92673.34
2022-10-17T02:53:33.395Z,92664.78
2022-10-17T02:56:21.331Z,92673.00
2022-10-17T02:59:07.106Z,92670.00
2022-10-17T03:01:53.108Z,92675.50
2022-10-17T03:04:38.877Z,92678.50
2022-10-17T03:07:24.799Z,92681.28
2022-10-17T03:10:10.575Z,92685.34
2022-10-17T03:12:56.487Z,92693.50
2022-10-17T03:15:42.333Z,92696.69
2022-10-17T03:18:28.028Z,92694.88
2022-10-17T03:21:13.895Z,92696.44
2022-10-17T03:23:59.813Z,92697.91
2022-10-17T03:29:32.670Z,92690.34
2022-10-17T03:32:18.484Z,92690.19
2022-10-17T03:35:04.318Z,92693.53
2022-10-17T03:37:50.487Z,92691.97
2022-10-17T03:40:36.226Z,92687.06
2022-10-17T03:43:22.023Z,92691.78
2022-10-17T03:46:08.037Z,92692.59
2022-10-17T03:48:54.165Z,92687.09
2022-10-17T03:51:40.064Z,92697.06
2022-10-17T03:54:25.829Z,92701.84
2022-10-17T03:57:11.641Z,92701.84
2022-10-17T03:59:57.517Z,92701.16
2022-10-17T04:02:43.449Z,92705.25
2022-10-17T04:05:29.304Z,92702.03
2022-10-17T04:08:15.145Z,92707.78
2022-10-17T04:11:00.931Z,92719.06
2022-10-17T04:13:46.873Z,92714.88
2022-10-17T04:16:32.709Z,92711.56
2022-10-17T04:19:18.640Z,92715.72
2022-10-17T04:22:04.459Z,92721.09
2022-10-17T04:24:50.206Z,92722.44
2022-10-17T04:27:36.166Z,92722.75
2022-10-17T04:30:21.975Z,92732.88
2022-10-17T04:33:07.684Z,92731.50
2022-10-17T04:35:53.612Z,92736.28
2022-10-17T04:38:41.399Z,92735.81
2022-10-17T04:41:27.224Z,92737.09
2022-10-17T04:44:13.153Z,92741.69
2022-10-17T04:46:59.069Z,92743.03
2022-10-17T04:49:44.908Z,92739.88
2022-10-17T04:52:31.235Z,92735.50
2022-10-17T04:55:17.398Z,92740.91
2022-10-17T04:58:03.366Z,92747.16
2022-10-17T05:00:49.122Z,92741.16
2022-10-17T05:03:34.792Z,92759.78
2022-10-17T05:06:20.644Z,92754.53
2022-10-17T05:09:06.407Z,92754.06
2022-10-17T05:11:52.330Z,92757.53
2022-10-17T05:14:38.022Z,92748.75
2022-10-17T05:17:23.922Z,92755.81
2022-10-17T05:20:09.783Z,92755.81
2022-10-17T05:22:55.687Z,92765.03
2022-10-17T05:25:41.518Z,92761.66
2022-10-17T05:28:27.579Z,92769.28
2022-10-17T05:31:13.364Z,92774.97
2022-10-17T05:33:59.331Z,92776.81
2022-10-17T05:36:45.178Z,92773.84
2022-10-17T05:39:31.058Z,92780.56
2022-10-17T05:42:16.897Z,92782.38
2022-10-17T05:45:02.789Z,92782.56
2022-10-17T05:47:48.691Z,92785.19
2022-10-17T05:50:34.537Z,92792.81
2022-10-17T05:53:20.567Z,92798.69
2022-10-17T05:56:06.581Z,92797.38
2022-10-17T05:58:55.187Z,92793.06
2022-10-17T06:01:43.279Z,92802.78
2022-10-17T06:04:29.143Z,92798.63
2022-10-17T06:07:14.905Z,92803.19
2022-10-17T06:10:00.862Z,92798.78
2022-10-17T06:12:46.749Z,92808.00
2022-10-17T06:15:32.516Z,92811.66
2022-10-17T06:18:18.299Z,92816.88
2022-10-17T06:21:04.080Z,92817.25
2022-10-17T06:23:50.062Z,92828.72
2022-10-17T06:26:35.969Z,92834.53
2022-10-17T06:29:23.827Z,92836.09
2022-10-17T06:32:12.632Z,92834.59
2022-10-17T06:35:00.804Z,92835.78
2022-10-17T06:37:46.701Z,92834.22
2022-10-17T06:40:32.514Z,92840.25
2022-10-17T06:43:18.386Z,92825.03
2022-10-17T06:46:04.255Z,92837.47
2022-10-17T06:48:50.078Z,92838.25
2022-10-17T06:51:36.121Z,92835.75
2022-10-17T06:54:21.970Z,92838.75
2022-10-17T06:57:07.729Z,92839.09
2022-10-17T06:59:53.533Z,92843.13
2022-10-17T07:02:39.338Z,92848.34
2022-10-17T07:05:25.217Z,92850.56
2022-10-17T07:08:13.029Z,92859.22
2022-10-17T07:10:58.977Z,92862.84
2022-10-17T07:13:44.736Z,92870.75
2022-10-17T07:16:30.531Z,92868.28
2022-10-17T07:19:16.375Z,92881.72
2022-10-17T07:22:02.295Z,92887.75
2022-10-17T07:27:40.294Z,92885.38
2022-10-17T07:30:26.121Z,92884.53
2022-10-17T07:33:11.907Z,92887.31
2022-10-17T07:35:57.558Z,92889.22
2022-10-17T07:38:43.545Z,92888.81
2022-10-17T07:41:29.400Z,92907.72
2022-10-17T07:44:15.293Z,92909.31
2022-10-17T07:47:01.185Z,92901.84
2022-10-17T07:49:47.225Z,92905.44
2022-10-17T07:52:33.139Z,92907.47
2022-10-17T07:55:19.065Z,92912.28
2022-10-17T07:58:04.940Z,92915.97
2022-10-17T08:00:50.984Z,92911.81
2022-10-17T08:03:37.176Z,92921.75
2022-10-17T08:06:23.077Z,92917.00
2022-10-17T08:09:08.936Z,92921.22
2022-10-17T08:11:54.885Z,92927.84
2022-10-17T08:14:40.827Z,92920.75
2022-10-17T08:17:26.784Z,92921.06
2022-10-17T08:20:12.844Z,92928.59
2022-10-17T08:22:58.780Z,92924.44
2022-10-17T08:25:44.552Z,92925.63
2022-10-17T08:28:30.574Z,92918.78
2022-10-17T08:31:16.489Z,92925.59
2022-10-17T08:34:02.517Z,92930.66
2022-10-17T08:36:48.454Z,92929.44
2022-10-17T08:39:34.415Z,92939.34
2022-10-17T08:42:20.255Z,92938.34
2022-10-17T08:45:06.215Z,92931.81
2022-10-17T08:47:52.199Z,92929.22
2022-10-17T08:50:38.197Z,92930.75
2022-10-17T08:53:23.890Z,92931.97
2022-10-17T08:56:15.375Z,92930.47
2022-10-17T08:59:05.826Z,92931.31
2022-10-17T09:01:51.793Z,92932.03
2022-10-17T09:04:37.673Z,92927.19
2022-10-17T09:07:23.651Z,92937.50
2022-10-17T09:10:09.525Z,92928.16
2022-10-17T09:12:57.353Z,92929.97
2022-10-17T09:15:43.123Z,92938.16
2022-10-17T09:18:29.306Z,92934.47
2022-10-17T09:21:17.277Z,92947.13
2022-10-17T09:24:09.373Z,92946.03
2022-10-17T09:26:55.627Z,92937.91
2022-10-17T09:29:43.847Z,92940.16
2022-10-17T09:32:30.173Z,92953.13
2022-10-17T09:35:16.176Z,92959.53
2022-10-17T09:38:02.220Z,92953.84
2022-10-17T09:40:48.080Z,92953.59
2022-10-17T09:43:33.899Z,92956.13
2022-10-17T09:46:19.865Z,92951.97
2022-10-17T09:49:05.719Z,92955.69
2022-10-17T09:51:51.594Z,92943.44
2022-10-17T09:54:37.533Z,92953.56
2022-10-17T09:57:23.388Z,92944.00
2022-10-17T10:00:09.353Z,92950.16
2022-10-17T10:02:55.171Z,92949.22
2022-10-17T10:05:40.982Z,92959.66
2022-10-17T10:08:27.074Z,92953.91
2022-10-17T10:11:14.014Z,92955.88
2022-10-17T10:14:00.026Z,92962.91
2022-10-17T10:16:45.949Z,92961.72
2022-10-17T10:19:31.854Z,92955.59
2022-10-17T10:22:17.651Z,92955.50
2022-10-17T10:25:05.466Z,92959.47
2022-10-17T10:27:51.296Z,92960.41
2022-10-17T10:30:39.179Z,92954.09
2022-10-17T10:33:26.280Z,92959.03
2022-10-17T10:36:12.031Z,92963.84
2022-10-17T10:39:01.210Z,92971.50
2022-10-17T10:41:50.068Z,92974.59
2022-10-17T10:44:35.824Z,92979.47
2022-10-17T10:47:21.815Z,92974.72
2022-10-17T10:50:08.043Z,92977.28
2022-10-17T10:52:54.215Z,92975.31
2022-10-17T10:55:40.192Z,92968.84
2022-10-17T10:58:26.110Z,92972.22
2022-10-17T11:01:12.044Z,92972.50
2022-10-17T11:03:57.918Z,92968.84
2022-10-17T11:06:43.651Z,92967.88
2022-10-17T11:09:32.855Z,92972.16
2022-10-17T11:12:19.845Z,92966.88
2022-10-17T11:15:05.798Z,92972.25
2022-10-17T11:17:51.702Z,92970.81
2022-10-17T11:20:37.528Z,92968.06
2022-10-17T11:23:23.371Z,92959.19
2022-10-17T11:26:09.300Z,92960.19
2022-10-17T11:28:55.278Z,92964.72
2022-10-17T11:31:41.194Z,92960.22
2022-10-17T11:34:27.068Z,92964.53
2022-10-17T11:37:15.183Z,92965.47
2022-10-17T11:40:01.087Z,92967.44
2022-10-17T11:42:47.402Z,92963.81
2022-10-17T11:45:33.413Z,92961.84
2022-10-17T11:48:19.278Z,92963.41
2022-10-17T11:54:11.285Z,92959.81
2022-10-17T11:56:57.026Z,92956.44
2022-10-17T11:59:42.947Z,92953.75
2022-10-17T12:02:29.146Z,92949.97
2022-10-17T12:05:15.325Z,92950.75
2022-10-17T12:08:01.241Z,92953.53
2022-10-17T12:10:47.602Z,92952.72
2022-10-17T12:13:33.582Z,92949.25
2022-10-17T12:16:19.549Z,92946.09
2022-10-17T12:19:05.343Z,92946.41
2022-10-17T12:21:51.209Z,92939.34
2022-10-17T12:24:37.144Z,92944.44
2022-10-17T12:27:23.027Z,92948.13
2022-10-17T12:30:09.010Z,92949.94
2022-10-17T12:33:05.643Z,92946.94
2022-10-17T12:35:53.127Z,92937.78
2022-10-17T12:38:39.037Z,92936.13
2022-10-17T12:41:24.842Z,92942.38
2022-10-17T12:44:10.732Z,92929.34
2022-10-17T12:46:56.940Z,92918.94
2022-10-17T12:49:42.811Z,92918.44
2022-10-17T12:52:28.864Z,92913.41
2022-10-17T12:55:15.083Z,92908.53
2022-10-17T12:58:01.353Z,92911.63
2022-10-17T13:01:05.240Z,92914.75
2022-10-17T13:03:53.132Z,92912.72
2022-10-17T13:06:38.956Z,92906.44
2022-10-17T13:09:24.998Z,92907.88
2022-10-17T13:12:10.944Z,92910.06
2022-10-17T13:14:57.266Z,92908.09
2022-10-17T13:17:43.807Z,92905.56
2022-10-17T13:20:31.560Z,92915.81
2022-10-17T13:23:17.800Z,92903.06
2022-10-17T13:26:03.780Z,92912.72
2022-10-17T13:28:49.611Z,92907.81
2022-10-17T13:31:35.611Z,92914.31
2022-10-17T13:34:21.357Z,92905.84
2022-10-17T13:37:07.296Z,92896.75
2022-10-17T13:39:55.570Z,92899.59
2022-10-17T13:42:42.636Z,92900.03
2022-10-17T13:45:28.510Z,92896.22
2022-10-17T13:48:14.566Z,92901.00
2022-10-17T13:51:03.003Z,92893.19
2022-10-17T13:53:49.330Z,92897.88
2022-10-17T13:56:35.132Z,92899.19
2022-10-17T13:59:21.021Z,92899.19
2022-10-17T14:02:08.875Z,92900.81
2022-10-17T14:08:21.759Z,92900.69
2022-10-17T14:11:07.220Z,92898.53
2022-10-17T14:13:53.112Z,92897.88
2022-10-17T14:16:39.078Z,92896.13
2022-10-17T14:19:24.840Z,92896.16
2022-10-17T14:22:10.789Z,92897.75
2022-10-17T14:25:02.327Z,92896.88
2022-10-17T14:27:48.583Z,92893.00
2022-10-17T14:30:55.119Z,92891.50
2022-10-17T14:33:42.663Z,92889.00
2022-10-17T14:36:29.909Z,92895.22
2022-10-17T14:39:15.922Z,92897.81
2022-10-17T14:42:04.387Z,92897.50
2022-10-17T14:44:52.831Z,92898.03
2022-10-17T14:47:43.501Z,92900.59
2022-10-17T14:50:29.908Z,92893.22
2022-10-17T14:53:15.643Z,92892.72
2022-10-17T14:56:01.722Z,92892.03
2022-10-17T14:58:47.635Z,92892.53
2022-10-17T15:01:33.462Z,92891.22
2022-10-17T15:04:19.304Z,92890.47
2022-10-17T15:07:05.122Z,92884.03
2022-10-17T15:09:51.010Z,92891.41
2022-10-17T15:12:36.786Z,92884.00
2022-10-17T15:15:22.618Z,92889.63
2022-10-17T15:18:08.561Z,92891.59
2022-10-17T15:21:04.583Z,92900.88
2022-10-17T15:23:52.748Z,92901.56
2022-10-17T15:26:38.743Z,92900.75
2022-10-17T15:29:24.653Z,92905.59
2022-10-17T15:32:10.507Z,92907.84
2022-10-17T15:34:56.449Z,92901.28
2022-10-17T15:37:42.359Z,92905.53
2022-10-17T15:40:28.390Z,92907.91
2022-10-17T15:43:19.602Z,92905.63
2022-10-17T15:46:06.153Z,92910.66
2022-10-17T15:48:52.004Z,92909.28
2022-10-17T15:51:37.851Z,92920.03
2022-10-17T15:54:23.664Z,92908.41
2022-10-17T15:57:09.556Z,92914.25
2022-10-17T15:59:55.343Z,92919.00
2022-10-17T16:02:41.239Z,92924.31
2022-10-17T16:05:27.278Z,92928.03
2022-10-17T16:08:13.140Z,92915.78
2022-10-17T16:10:59.071Z,92919.19
2022-10-17T16:13:44.965Z,92923.94
2022-10-17T16:16:30.932Z,92929.34
2022-10-17T16:19:16.836Z,92936.41
2022-10-17T16:22:04.460Z,92931.78
2022-10-17T16:24:50.501Z,92930.38
2022-10-17T16:27:36.387Z,92939.34
2022-10-17T16:33:12.988Z,92953.69
2022-10-17T16:35:58.976Z,92950.91
2022-10-17T16:38:44.905Z,92958.91
2022-10-17T16:41:30.834Z,92963.41
2022-10-17T16:44:16.784Z,92965.06
2022-10-17T16:47:04.687Z,92970.16
2022-10-17T16:49:50.591Z,92967.63
2022-10-17T16:52:36.509Z,92971.41
2022-10-17T16:55:22.317Z,92970.97
2022-10-17T16:58:07.986Z,92975.97
2022-10-17T17:00:54.005Z,92971.00
2022-10-17T17:03:40.130Z,92976.09
2022-10-17T17:06:26.022Z,92977.81
2022-10-17T17:09:11.812Z,92975.50
2022-10-17T17:11:57.789Z,92985.69
2022-10-17T17:14:43.737Z,92980.38
2022-10-17T17:17:37.233Z,92991.31
2022-10-17T17:20:30.813Z,92984.78
2022-10-17T17:23:16.938Z,92988.66
2022-10-17T17:26:04.759Z,92994.22
2022-10-17T17:28:50.768Z,93002.56
2022-10-17T17:31:38.824Z,93001.84
2022-10-17T17:34:24.681Z,93006.59
2022-10-17T17:37:10.481Z,93006.56
2022-10-17T17:39:56.370Z,93001.97
2022-10-17T17:42:42.419Z,93010.75
2022-10-17T17:45:28.364Z,93010.34
2022-10-17T17:48:14.019Z,93021.41
2022-10-17T17:50:59.906Z,93015.56
2022-10-17T17:53:45.823Z,93020.56
2022-10-17T17:56:31.663Z,93024.66
2022-10-17T17:59:17.407Z,93032.72
2022-10-17T18:02:03.330Z,93031.69
2022-10-17T18:04:49.235Z,93031.59
2022-10-17T18:07:35.076Z,93037.78
2022-10-17T18:10:20.921Z,93043.03
2022-10-17T18:13:06.958Z,93037.53
2022-10-17T18:15:52.854Z,93035.75
2022-10-17T18:18:38.754Z,93039.97
2022-10-17T18:21:24.581Z,93052.28
2022-10-17T18:24:10.549Z,93043.53
2022-10-17T18:26:58.343Z,93045.50
2022-10-17T18:29:44.344Z,93044.06
2022-10-17T18:32:30.276Z,93041.78
2022-10-17T18:35:16.543Z,93043.63
2022-10-17T18:38:02.362Z,93025.97
2022-10-17T18:40:50.681Z,93016.69
2022-10-17T18:43:36.880Z,93024.88
2022-10-17T18:46:22.862Z,93033.47
2022-10-17T18:49:08.764Z,93035.03
2022-10-17T18:51:54.657Z,93042.75
2022-10-17T18:54:40.508Z,93034.81
2022-10-17T18:57:26.485Z,93034.81
2022-10-17T19:00:12.502Z,93040.16
2022-10-17T19:02:58.296Z,93038.31
2022-10-17T19:05:44.153Z,93045.31
2022-10-17T19:08:30.094Z,93059.06
2022-10-17T19:11:15.835Z,93053.25
2022-10-17T19:14:01.666Z,93057.91
2022-10-17T19:16:47.400Z,93050.06
2022-10-17T19:19:33.358Z,93056.19
2022-10-17T19:22:19.255Z,93054.84
2022-10-17T19:25:05.173Z,93059.47
2022-10-17T19:27:50.909Z,93059.22
2022-10-17T19:30:38.922Z,93060.72
2022-10-17T19:33:24.767Z,93055.75
2022-10-17T19:36:10.620Z,93059.13
2022-10-17T19:38:56.343Z,93062.63
2022-10-17T19:41:42.140Z,93061.03
2022-10-17T19:44:28.062Z,93059.75
2022-10-17T19:47:13.929Z,93063.09
2022-10-17T19:49:59.825Z,93068.50
2022-10-17T19:52:45.801Z,93067.50
2022-10-17T19:55:31.618Z,93065.25
2022-10-17T19:58:17.620Z,93057.53
2022-10-17T20:01:03.513Z,93063.63
2022-10-17T20:03:49.461Z,93070.13
2022-10-17T20:06:35.288Z,93065.69
2022-10-17T20:09:21.106Z,93064.78
2022-10-17T20:12:07.209Z,93068.31
2022-10-17T20:14:53.135Z,93069.06
2022-10-17T20:17:38.966Z,93070.47
2022-10-17T20:20:26.880Z,93080.25
2022-10-17T20:23:12.762Z,93068.69
2022-10-17T20:26:06.846Z,93077.53
2022-10-17T20:28:59.596Z,93073.28
2022-10-17T20:31:45.387Z,93068.03
2022-10-17T20:34:31.382Z,93075.47
2022-10-17T20:37:17.105Z,93077.22
2022-10-17T20:40:33.005Z,93070.81
2022-10-17T20:43:08.801Z,93068.63
2022-10-17T20:46:03.619Z,93074.03
2022-10-17T20:48:54.767Z,93086.34
2022-10-17T20:51:40.602Z,93075.69
2022-10-17T20:54:26.437Z,93083.56
2022-10-17T20:57:12.402Z,93077.63
2022-10-17T20:59:58.388Z,93084.69
2022-10-17T21:02:44.200Z,93086.16
2022-10-17T21:05:29.973Z,93084.56
2022-10-17T21:08:16.228Z,93085.56
2022-10-17T21:11:02.450Z,93081.47
2022-10-17T21:13:48.344Z,93088.34
2022-10-17T21:16:33.955Z,93090.25
2022-10-17T21:19:19.754Z,93082.91
2022-10-17T21:22:05.605Z,93089.00
2022-10-17T21:24:51.286Z,93083.72
2022-10-17T21:27:37.180Z,93086.63
2022-10-17T21:30:23.208Z,93094.00
2022-10-17T21:33:09.062Z,93089.34
2022-10-17T21:35:55.098Z,93085.47
2022-10-17T21:38:40.932Z,93093.28
2022-10-17T21:41:26.638Z,93094.91
2022-10-17T21:44:12.564Z,93081.34
2022-10-17T21:46:58.337Z,93082.53
2022-10-17T21:49:44.215Z,93083.31
2022-10-17T21:52:30.263Z,93082.53
2022-10-17T21:55:16.538Z,93080.31
2022-10-17T21:58:02.327Z,93076.38
2022-10-17T22:00:48.238Z,93071.47
2022-10-17T22:03:36.103Z,93069.59
2022-10-17T22:09:27.959Z,93088.38
2022-10-17T22:12:13.946Z,93080.88
2022-10-17T22:15:01.904Z,93079.22
2022-10-17T22:17:47.787Z,93091.53
2022-10-17T22:20:33.585Z,93092.94
2022-10-17T22:23:19.529Z,93084.19
2022-10-17T22:26:05.375Z,93084.38
2022-10-17T22:28:51.334Z,93084.16
2022-10-17T22:31:37.467Z,93091.44
2022-10-17T22:34:23.257Z,93089.16
2022-10-17T22:37:09.147Z,93081.41
2022-10-17T22:39:55.123Z,93082.53
2022-10-17T22:42:41.011Z,93083.13
2022-10-17T22:45:26.947Z,93079.41
2022-10-17T22:48:12.838Z,93082.22
2022-10-17T22:50:58.761Z,93081.97
2022-10-17T22:53:46.653Z,93074.59
2022-10-17T22:56:32.349Z,93080.47
2022-10-17T22:59:18.205Z,93094.22
2022-10-17T23:02:04.128Z,93087.69
2022-10-17T23:04:49.982Z,93086.19
2022-10-17T23:07:35.725Z,93073.66
2022-10-17T23:10:21.534Z,93080.50
2022-10-17T23:13:07.480Z,93084.00
2022-10-17T23:15:53.477Z,93079.75
2022-10-17T23:18:39.242Z,93082.81
2022-10-17T23:21:25.101Z,93077.50
2022-10-17T23:24:10.888Z,93072.53
2022-10-17T23:26:56.686Z,93076.34
2022-10-17T23:29:42.549Z,93081.22
2022-10-17T23:32:28.686Z,93075.47
2022-10-17T23:35:14.855Z,93083.53
2022-10-17T23:38:00.839Z,93082.00
2022-10-17T23:40:46.811Z,93084.34
2022-10-17T23:43:32.620Z,93075.56
2022-10-17T23:46:18.339Z,93082.41
2022-10-17T23:49:04.331Z,93087.00
2022-10-17T23:51:50.239Z,93079.44
2022-10-17T23:54:36.133Z,93069.16
2022-10-17T23:57:21.964Z,93073.69
